createdAt,value
2023-01-10T00:00:39.531Z,5.90
2023-01-10T00:04:42.432Z,5.90
2023-01-10T00:08:45.646Z,5.87
2023-01-10T00:13:08.555Z,5.90
2023-01-10T00:17:11.632Z,5.92
2023-01-10T00:21:15.327Z,5.94
2023-01-10T00:25:21.163Z,5.96
2023-01-10T00:29:29.136Z,5.93
2023-01-10T00:33:32.701Z,5.93
2023-01-10T00:37:35.751Z,5.90
2023-01-10T00:41:56.432Z,5.85
2023-01-10T00:46:02.627Z,5.82
2023-01-10T00:50:08.683Z,5.78
2023-01-10T00:54:12.869Z,5.73
2023-01-10T00:58:16.839Z,5.69
2023-01-10T01:02:22.516Z,5.65
2023-01-10T01:06:25.320Z,5.62
2023-01-10T01:10:28.972Z,5.64
2023-01-10T01:14:31.937Z,5.64
2023-01-10T01:18:37.626Z,5.66
2023-01-10T01:22:40.873Z,5.69
2023-01-10T01:26:43.693Z,5.72
2023-01-10T01:30:47.050Z,5.75
2023-01-10T01:34:51.799Z,5.79
2023-01-10T01:38:54.890Z,5.81
2023-01-10T01:42:57.853Z,5.79
2023-01-10T01:47:04.613Z,5.82
2023-01-10T01:51:14.746Z,5.85
2023-01-10T01:55:18.381Z,5.84
2023-01-10T01:59:26.703Z,5.83
2023-01-10T02:03:31.075Z,5.83
2023-01-10T02:07:38.415Z,5.76
2023-01-10T02:11:41.824Z,5.75
2023-01-10T02:15:44.945Z,5.75
2023-01-10T02:19:53.561Z,5.72
2023-01-10T02:24:36.562Z,5.70
2023-01-10T02:29:09.658Z,5.64
2023-01-10T02:33:22.814Z,5.64
2023-01-10T02:37:40.972Z,5.65
2023-01-10T02:41:53.071Z,5.65
2023-01-10T02:46:00.842Z,5.63
2023-01-10T02:54:32.984Z,5.61
2023-01-10T02:58:49.697Z,5.59
2023-01-10T03:03:07.581Z,5.56
2023-01-10T03:07:19.400Z,5.54
2023-01-10T03:11:40.978Z,5.55
2023-01-10T03:15:47.049Z,5.53
2023-01-10T03:19:54.528Z,5.58
2023-01-10T03:24:01.972Z,5.59
2023-01-10T03:28:12.334Z,5.56
2023-01-10T03:32:18.636Z,5.59
2023-01-10T03:36:32.230Z,5.59
2023-01-10T03:40:42.219Z,5.58
2023-01-10T03:45:02.969Z,5.61
2023-01-10T03:49:08.702Z,5.61
2023-01-10T03:53:13.543Z,5.60
2023-01-10T03:57:18.925Z,5.58
2023-01-10T04:01:24.635Z,5.55
2023-01-10T04:05:27.515Z,5.52
2023-01-10T04:09:30.614Z,5.56
2023-01-10T04:13:33.547Z,5.55
2023-01-10T04:17:38.233Z,5.55
2023-01-10T04:21:41.090Z,5.54
2023-01-10T04:25:47.662Z,5.54
2023-01-10T04:29:50.413Z,5.54
2023-01-10T04:33:57.073Z,5.54
2023-01-10T04:38:00.784Z,5.53
2023-01-10T04:42:03.778Z,5.53
2023-01-10T04:46:06.838Z,5.53
2023-01-10T04:50:12.470Z,5.55
2023-01-10T04:54:15.467Z,5.53
2023-01-10T04:58:18.570Z,5.52
2023-01-10T05:02:21.620Z,5.55
2023-01-10T05:06:26.253Z,5.59
2023-01-10T05:10:29.073Z,5.66
2023-01-10T05:14:32.014Z,5.65
2023-01-10T05:18:35.458Z,5.69
2023-01-10T05:22:39.757Z,5.70
2023-01-10T05:26:45.134Z,5.68
2023-01-10T05:30:47.977Z,5.75
2023-01-10T05:34:50.994Z,5.77
2023-01-10T05:38:55.350Z,5.80
2023-01-10T05:42:58.192Z,5.78
2023-01-10T05:47:01.518Z,5.77
2023-01-10T05:51:04.659Z,5.80
2023-01-10T05:55:26.039Z,5.81
2023-01-10T05:59:29.667Z,5.80
2023-01-10T06:03:32.586Z,5.82
2023-01-10T06:07:35.565Z,5.86
2023-01-10T06:11:39.918Z,5.84
2023-01-10T06:15:44.335Z,5.83
2023-01-10T06:19:48.367Z,5.84
2023-01-10T06:23:51.541Z,5.85
2023-01-10T06:27:56.477Z,5.83
2023-01-10T06:31:59.333Z,5.82
2023-01-10T06:36:03.402Z,5.79
2023-01-10T06:40:07.493Z,5.76
2023-01-10T06:44:12.569Z,5.72
2023-01-10T06:48:15.469Z,5.66
2023-01-10T06:52:18.476Z,5.57
2023-01-10T06:56:21.340Z,5.50
2023-01-10T07:00:28.001Z,5.48
2023-01-10T07:04:31.314Z,5.43
2023-01-10T07:08:34.486Z,5.36
2023-01-10T07:12:37.305Z,5.27
2023-01-10T07:16:41.708Z,5.22
2023-01-10T07:20:45.553Z,5.17
2023-01-10T07:24:48.443Z,5.15
2023-01-10T07:28:52.303Z,5.19
2023-01-10T07:32:58.693Z,5.18
2023-01-10T07:37:02.549Z,5.22
2023-01-10T07:41:05.975Z,5.18
2023-01-10T07:45:09.962Z,5.15
2023-01-10T07:49:15.052Z,5.13
2023-01-10T07:53:18.033Z,5.09
2023-01-10T07:57:21.061Z,5.09
2023-01-10T08:01:24.849Z,5.08
2023-01-10T08:05:30.217Z,5.06
2023-01-10T08:09:33.122Z,5.07
2023-01-10T08:13:36.530Z,5.04
2023-01-10T08:17:39.326Z,5.09
2023-01-10T08:21:44.933Z,5.12
2023-01-10T08:25:48.174Z,5.20
2023-01-10T08:29:51.374Z,5.26
2023-01-10T08:33:56.633Z,5.29
2023-01-10T08:38:02.053Z,5.39
2023-01-10T08:42:05.678Z,5.46
2023-01-10T08:46:08.998Z,5.53
2023-01-10T08:50:12.617Z,5.59
2023-01-10T08:54:18.420Z,5.69
2023-01-10T08:58:21.304Z,5.78
2023-01-10T09:02:24.344Z,5.77
2023-01-10T09:06:27.342Z,5.82
2023-01-10T09:10:32.144Z,5.82
2023-01-10T09:14:35.167Z,5.83
2023-01-10T09:18:38.239Z,5.81
2023-01-10T09:22:41.839Z,5.84
2023-01-10T09:26:48.191Z,5.84
2023-01-10T09:30:51.767Z,5.91
2023-01-10T09:34:54.798Z,5.96
2023-01-10T09:38:58.190Z,5.98
2023-01-10T09:43:16.628Z,6.04
2023-01-10T09:47:25.995Z,6.06
2023-01-10T09:51:37.220Z,6.08
2023-01-10T09:55:40.412Z,6.14
2023-01-10T09:59:50.961Z,6.19
2023-01-10T10:04:01.980Z,6.29
2023-01-10T10:08:07.270Z,6.33
2023-01-10T10:12:27.100Z,6.43
2023-01-10T10:16:41.894Z,6.48
2023-01-10T10:20:54.665Z,6.54
2023-01-10T10:25:05.597Z,6.59
2023-01-10T10:29:29.313Z,6.64
2023-01-10T10:33:49.485Z,6.67
2023-01-10T10:37:54.589Z,6.79
2023-01-10T10:41:58.815Z,6.85
2023-01-10T10:46:05.365Z,6.90
2023-01-10T10:50:22.435Z,6.94
2023-01-10T10:54:26.064Z,7.03
2023-01-10T10:58:30.812Z,7.02
2023-01-10T11:02:41.484Z,7.09
2023-01-10T11:06:49.162Z,7.11
2023-01-10T11:10:56.181Z,7.18
2023-01-10T11:14:59.941Z,7.24
2023-01-10T11:19:17.949Z,7.24
2023-01-10T11:23:32.554Z,7.28
2023-01-10T11:27:47.940Z,7.28
2023-01-10T11:31:52.490Z,7.27
2023-01-10T11:36:01.888Z,7.25
2023-01-10T11:40:25.677Z,7.30
2023-01-10T11:44:30.271Z,7.34
2023-01-10T11:49:04.969Z,7.30
2023-01-10T11:53:24.279Z,7.19
2023-01-10T11:57:32.735Z,7.13
2023-01-10T12:01:42.180Z,7.15
2023-01-10T12:05:52.642Z,7.20
2023-01-10T12:09:58.112Z,7.17
2023-01-10T12:14:03.568Z,7.17
2023-01-10T12:18:07.573Z,7.17
2023-01-10T12:22:15.899Z,7.18
2023-01-10T12:26:19.689Z,7.14
2023-01-10T12:30:31.554Z,7.13
2023-01-10T12:34:42.449Z,7.07
2023-01-10T12:39:04.833Z,7.06
2023-01-10T12:43:33.749Z,7.02
2023-01-10T12:47:49.006Z,7.04
2023-01-10T12:51:56.210Z,7.04
2023-01-10T12:56:04.268Z,7.06
2023-01-10T13:00:17.424Z,7.06
2023-01-10T13:04:27.013Z,7.06
2023-01-10T13:08:34.506Z,7.10
2023-01-10T13:12:41.624Z,7.04
2023-01-10T13:16:49.773Z,7.11
2023-01-10T13:21:08.678Z,7.11
2023-01-10T13:25:21.516Z,7.11
2023-01-10T13:29:28.120Z,7.09
2023-01-10T13:33:36.000Z,7.13
2023-01-10T13:37:42.921Z,7.14
2023-01-10T13:42:42.073Z,7.17
2023-01-10T13:46:50.093Z,7.16
2023-01-10T13:51:08.639Z,7.17
2023-01-10T13:55:53.658Z,7.10
2023-01-10T14:00:22.509Z,7.17
2023-01-10T14:04:28.376Z,7.21
2023-01-10T14:08:32.239Z,7.21
2023-01-10T14:12:41.226Z,7.23
2023-01-10T14:16:47.696Z,7.27
2023-01-10T14:20:58.658Z,7.27
2023-01-10T14:25:04.537Z,7.25
2023-01-10T14:29:13.787Z,7.28
2023-01-10T14:33:22.712Z,7.33
2023-01-10T14:37:31.964Z,7.38
2023-01-10T14:41:37.944Z,7.31
2023-01-10T14:45:51.742Z,7.34
2023-01-10T14:49:56.708Z,7.36
2023-01-10T14:54:02.200Z,7.29
2023-01-10T14:58:05.042Z,7.35
2023-01-10T15:02:17.826Z,7.32
2023-01-10T15:06:21.038Z,7.39
2023-01-10T15:10:28.878Z,7.33
2023-01-10T15:14:33.638Z,7.42
2023-01-10T15:18:47.150Z,7.45
2023-01-10T15:22:55.535Z,7.47
2023-01-10T15:27:00.754Z,7.48
2023-01-10T15:31:05.789Z,7.53
2023-01-10T15:35:17.926Z,7.55
2023-01-10T15:39:26.516Z,7.63
2023-01-10T15:43:31.010Z,7.62
2023-01-10T15:47:52.628Z,7.62
2023-01-10T15:51:57.519Z,7.59
2023-01-10T15:56:12.747Z,7.55
2023-01-10T16:00:18.986Z,7.52
2023-01-10T16:04:22.576Z,7.52
2023-01-10T16:08:32.520Z,7.52
2023-01-10T16:12:55.336Z,7.52
2023-01-10T16:16:59.227Z,7.53
2023-01-10T16:21:06.680Z,7.50
2023-01-10T16:25:16.812Z,7.50
2023-01-10T16:29:21.007Z,7.48
2023-01-10T16:33:26.891Z,7.49
2023-01-10T16:37:30.124Z,7.39
2023-01-10T16:41:54.551Z,7.36
2023-01-10T16:46:00.360Z,7.27
2023-01-10T16:50:04.035Z,7.19
2023-01-10T16:54:07.485Z,7.11
2023-01-10T16:58:14.285Z,7.07
2023-01-10T17:02:19.504Z,7.06
2023-01-10T17:06:24.400Z,6.98
2023-01-10T17:10:31.009Z,6.89
2023-01-10T17:14:38.073Z,6.81
2023-01-10T17:18:41.046Z,6.70
2023-01-10T17:22:44.437Z,6.69
2023-01-10T17:26:47.978Z,6.68
2023-01-10T17:30:53.007Z,6.63
2023-01-10T17:34:56.087Z,6.61
2023-01-10T17:39:09.245Z,6.55
2023-01-10T17:43:14.496Z,6.52
2023-01-10T17:47:19.292Z,6.46
2023-01-10T17:51:24.601Z,6.46
2023-01-10T17:55:27.693Z,6.42
2023-01-10T17:59:31.291Z,6.27
2023-01-10T18:03:50.759Z,6.22
2023-01-10T18:07:53.868Z,6.29
2023-01-10T18:11:57.093Z,6.23
2023-01-10T18:16:01.773Z,6.24
2023-01-10T18:20:08.315Z,6.15
2023-01-10T18:24:11.655Z,6.21
2023-01-10T18:28:15.903Z,6.20
2023-01-10T18:32:19.696Z,6.29
2023-01-10T18:36:25.274Z,6.33
2023-01-10T18:40:28.218Z,6.31
2023-01-10T18:44:31.572Z,6.37
2023-01-10T18:48:36.968Z,6.30
2023-01-10T18:52:42.314Z,6.42
2023-01-10T18:56:47.410Z,6.50
2023-01-10T19:00:50.264Z,6.44
2023-01-10T19:04:54.203Z,6.47
2023-01-10T19:08:58.625Z,6.51
2023-01-10T19:13:01.620Z,6.48
2023-01-10T19:17:04.467Z,6.45
2023-01-10T19:21:13.258Z,6.56
2023-01-10T19:25:17.729Z,6.63
2023-01-10T19:29:22.247Z,6.62
2023-01-10T19:33:25.427Z,6.64
2023-01-10T19:37:29.547Z,6.67
2023-01-10T19:41:35.715Z,6.69
2023-01-10T19:45:42.223Z,6.70
2023-01-10T19:49:45.273Z,6.69
2023-01-10T19:53:48.306Z,6.76
2023-01-10T19:57:53.891Z,6.86
2023-01-10T20:01:57.436Z,6.91
2023-01-10T20:06:03.658Z,6.93
2023-01-10T20:10:07.210Z,6.96
2023-01-10T20:14:15.429Z,7.03
2023-01-10T20:18:18.541Z,7.05
2023-01-10T20:22:21.550Z,7.05
2023-01-10T20:26:26.860Z,7.04
2023-01-10T20:30:31.093Z,7.02
2023-01-10T20:34:35.086Z,7.00
2023-01-10T20:38:51.812Z,7.00
2023-01-10T20:42:54.921Z,7.02
2023-01-10T20:47:00.263Z,7.00
2023-01-10T20:51:03.564Z,7.07
2023-01-10T20:55:07.891Z,7.07
2023-01-10T20:59:10.987Z,7.11
2023-01-10T21:03:15.355Z,7.15
2023-01-10T21:07:18.420Z,7.16
2023-01-10T21:11:21.791Z,7.15
2023-01-10T21:15:24.788Z,7.18
2023-01-10T21:19:29.152Z,7.20
2023-01-10T21:23:32.253Z,7.22
2023-01-10T21:27:35.276Z,7.18
2023-01-10T21:31:38.603Z,7.17
2023-01-10T21:35:43.006Z,7.29
2023-01-10T21:39:45.988Z,7.33
2023-01-10T21:43:49.223Z,7.35
2023-01-10T21:47:52.960Z,7.42
2023-01-10T21:51:57.770Z,7.50
2023-01-10T21:56:00.869Z,7.54
2023-01-10T22:00:04.105Z,7.59
2023-01-10T22:04:17.278Z,7.57
2023-01-10T22:08:21.685Z,7.58
2023-01-10T22:12:25.973Z,7.63
2023-01-10T22:16:28.849Z,7.63
2023-01-10T22:20:32.340Z,7.64
2023-01-10T22:24:37.929Z,7.59
2023-01-10T22:28:41.133Z,7.63
2023-01-10T22:32:44.074Z,7.62
2023-01-10T22:36:47.467Z,7.59
2023-01-10T22:40:51.800Z,7.62
2023-01-10T22:44:54.629Z,7.68
2023-01-10T22:48:57.956Z,7.71
2023-01-10T22:53:00.981Z,7.71
2023-01-10T22:57:05.843Z,7.76
2023-01-10T23:01:09.082Z,7.84
2023-01-10T23:05:12.034Z,7.80
2023-01-10T23:09:15.196Z,7.93
2023-01-10T23:13:19.434Z,7.96
2023-01-10T23:17:23.531Z,8.03
2023-01-10T23:21:28.728Z,8.00
2023-01-10T23:25:31.678Z,8.05
2023-01-10T23:29:36.079Z,8.14
2023-01-10T23:33:38.854Z,8.16
2023-01-10T23:37:41.882Z,8.22
2023-01-10T23:41:44.842Z,8.25
2023-01-10T23:45:49.333Z,8.36
2023-01-10T23:49:52.388Z,8.36
2023-01-10T23:53:55.448Z,8.42
2023-01-10T23:57:58.744Z,8.46
